createdAt,value
2022-08-28T00:03:17.509Z,81.85
2022-08-28T00:06:58.466Z,81.69
2022-08-28T00:15:48.199Z,82.07
2022-08-28T00:30:12.827Z,81.84
2022-08-28T02:28:41.946Z,85.52
2022-08-28T03:14:40.950Z,86.15
2022-08-28T03:33:09.219Z,86.19
2022-08-28T03:56:04.534Z,86.02
2022-08-28T06:27:47.498Z,79.78
2022-08-28T06:45:51.154Z,79.94
2022-08-28T06:50:11.559Z,80.13
2022-08-28T07:50:10.285Z,68.73
2022-08-28T08:50:02.415Z,53.64
2022-08-28T09:24:05.628Z,51.50
2022-08-28T09:33:43.553Z,48.39
2022-08-28T09:37:46.963Z,49.31
2022-08-28T09:46:51.299Z,47.42
2022-08-28T10:00:41.526Z,45.19
2022-08-28T10:04:47.990Z,45.69
2022-08-28T10:09:09.897Z,46.83
2022-08-28T10:13:28.895Z,46.20
2022-08-28T10:27:05.013Z,45.58
2022-08-28T10:31:33.558Z,45.06
2022-08-28T10:36:05.378Z,43.36
2022-08-28T10:40:25.839Z,43.03
2022-08-28T10:44:43.473Z,41.29
2022-08-28T10:49:35.429Z,41.99
2022-08-28T10:53:59.341Z,41.59
2022-08-28T10:58:24.623Z,40.93
2022-08-28T11:02:45.881Z,41.26
2022-08-28T11:06:52.216Z,41.12
2022-08-28T11:10:54.632Z,39.77
2022-08-28T11:15:19.867Z,40.23
2022-08-28T11:19:24.386Z,39.77
2022-08-28T11:23:41.538Z,39.77
2022-08-28T11:28:03.066Z,40.10
2022-08-28T11:32:30.243Z,39.68
2022-08-28T11:36:33.862Z,39.00
2022-08-28T11:40:55.079Z,37.78
2022-08-28T11:44:56.846Z,37.41
2022-08-28T11:48:59.482Z,36.59
2022-08-28T11:53:16.087Z,36.86
2022-08-28T11:57:36.597Z,36.59
2022-08-28T12:01:39.315Z,36.74
2022-08-28T12:05:59.550Z,35.66
2022-08-28T12:10:05.010Z,35.53
2022-08-28T12:14:08.194Z,33.36
2022-08-28T12:18:10.499Z,32.84
2022-08-28T12:26:50.311Z,32.44
2022-08-28T12:31:12.872Z,31.72
2022-08-28T12:35:29.595Z,30.79
2022-08-28T12:39:38.185Z,29.79
2022-08-28T12:43:46.654Z,29.20
2022-08-28T12:47:49.911Z,28.50
2022-08-28T12:52:16.633Z,28.04
2022-08-28T12:56:20.365Z,27.95
2022-08-28T13:00:24.242Z,28.12
2022-08-28T13:04:32.693Z,27.41
2022-08-28T13:08:36.966Z,27.06
2022-08-28T13:12:56.086Z,26.66
2022-08-28T13:16:58.961Z,26.29
2022-08-28T13:21:33.152Z,25.62
2022-08-28T13:25:42.949Z,25.83
2022-08-28T13:29:59.676Z,26.81
2022-08-28T13:34:21.916Z,25.90
2022-08-28T13:38:25.103Z,25.74
2022-08-28T13:42:26.753Z,25.53
2022-08-28T13:46:28.540Z,25.63
2022-08-28T13:50:30.452Z,24.80
2022-08-28T13:54:32.291Z,24.32
2022-08-28T13:58:34.940Z,24.79
2022-08-28T14:02:56.833Z,25.22
2022-08-28T14:06:58.403Z,27.97
2022-08-28T14:10:59.971Z,28.85
2022-08-28T14:15:02.758Z,29.36
2022-08-28T14:19:05.913Z,29.80
2022-08-28T14:23:11.481Z,30.66
2022-08-28T14:27:13.968Z,31.42
2022-08-28T14:31:15.754Z,30.85
2022-08-28T14:35:17.341Z,30.97
2022-08-28T14:39:18.836Z,31.79
2022-08-28T14:43:20.292Z,31.82
2022-08-28T14:47:21.851Z,31.61
2022-08-28T14:51:23.570Z,32.39
2022-08-28T14:55:26.399Z,32.54
2022-08-28T14:59:29.710Z,31.60
2022-08-28T15:03:31.191Z,31.69
2022-08-28T15:07:42.116Z,32.03
2022-08-28T15:11:44.421Z,32.32
2022-08-28T15:15:46.490Z,31.85
2022-08-28T15:19:47.961Z,32.64
2022-08-28T15:23:50.771Z,31.88
2022-08-28T15:27:52.267Z,31.56
2022-08-28T15:31:53.860Z,31.70
2022-08-28T15:35:56.192Z,32.39
2022-08-28T15:40:16.645Z,32.35
2022-08-28T15:44:18.196Z,32.74
2022-08-28T15:48:19.945Z,32.27
2022-08-28T15:52:21.639Z,32.25
2022-08-28T15:56:24.261Z,32.34
2022-08-28T16:00:25.787Z,32.06
2022-08-28T16:04:27.380Z,31.67
2022-08-28T16:08:29.461Z,31.99
2022-08-28T16:12:31.408Z,31.74
2022-08-28T16:16:33.006Z,31.62
2022-08-28T16:20:36.444Z,31.91
2022-08-28T16:24:38.372Z,31.97
2022-08-28T16:28:39.977Z,31.56
2022-08-28T16:32:46.758Z,31.73
2022-08-28T16:36:48.672Z,32.14
2022-08-28T16:40:50.157Z,32.28
2022-08-28T16:44:55.332Z,32.26
2022-08-28T16:48:56.925Z,33.11
2022-08-28T16:53:02.453Z,33.03
2022-08-28T16:57:06.331Z,33.69
2022-08-28T17:01:13.585Z,33.33
2022-08-28T17:05:16.776Z,33.78
2022-08-28T17:09:21.113Z,33.43
2022-08-28T17:13:22.847Z,33.20
2022-08-28T17:17:24.415Z,33.66
2022-08-28T17:21:47.522Z,33.76
2022-08-28T17:25:49.399Z,33.52
2022-08-28T17:29:51.151Z,33.55
2022-08-28T17:33:52.656Z,33.86
2022-08-28T17:37:54.269Z,33.70
2022-08-28T17:41:55.871Z,34.53
2022-08-28T17:45:57.337Z,34.47
2022-08-28T17:49:59.920Z,34.33
2022-08-28T17:54:02.073Z,34.88
2022-08-28T17:58:03.712Z,35.39
2022-08-28T18:02:05.246Z,35.73
2022-08-28T18:06:06.875Z,36.58
2022-08-28T18:10:09.624Z,37.28
2022-08-28T18:14:11.237Z,37.34
2022-08-28T18:18:13.485Z,37.96
2022-08-28T18:22:15.180Z,38.08
2022-08-28T18:26:17.653Z,38.72
2022-08-28T18:30:19.173Z,39.54
2022-08-28T18:34:20.801Z,39.68
2022-08-28T18:38:23.067Z,40.07
2022-08-28T18:42:24.719Z,39.99
2022-08-28T18:46:26.542Z,39.80
2022-08-28T18:50:30.798Z,40.36
2022-08-28T18:54:32.416Z,40.69
2022-08-28T18:58:34.299Z,40.54
2022-08-28T19:02:40.776Z,41.17
2022-08-28T19:06:43.075Z,41.22
2022-08-28T19:10:46.689Z,40.93
2022-08-28T19:14:48.301Z,41.18
2022-08-28T19:18:51.476Z,41.02
2022-08-28T19:22:55.802Z,41.58
2022-08-28T19:26:57.327Z,41.52
2022-08-28T19:30:59.446Z,42.08
2022-08-28T19:35:02.020Z,41.62
2022-08-28T19:39:04.464Z,42.40
2022-08-28T19:43:06.174Z,42.31
2022-08-28T19:47:19.466Z,42.90
2022-08-28T19:51:23.105Z,43.13
2022-08-28T19:55:26.485Z,43.19
2022-08-28T19:59:28.114Z,43.56
2022-08-28T20:03:30.510Z,44.06
2022-08-28T20:07:32.196Z,44.42
2022-08-28T20:11:33.847Z,44.17
2022-08-28T20:15:35.797Z,44.99
2022-08-28T20:19:37.459Z,44.28
2022-08-28T20:23:45.298Z,44.27
2022-08-28T20:27:46.972Z,44.42
2022-08-28T20:31:56.304Z,44.75
2022-08-28T20:36:01.867Z,45.20
2022-08-28T20:40:09.196Z,45.11
2022-08-28T20:44:12.919Z,44.74
2022-08-28T20:48:14.573Z,44.98
2022-08-28T20:52:16.458Z,45.16
2022-08-28T20:56:18.179Z,45.30
2022-08-28T21:00:19.716Z,45.36
2022-08-28T21:04:21.216Z,45.19
2022-08-28T21:08:22.706Z,45.21
2022-08-28T21:12:24.683Z,45.25
2022-08-28T21:16:26.549Z,45.09
2022-08-28T21:20:28.777Z,45.88
2022-08-28T21:24:32.259Z,45.65
2022-08-28T21:28:33.909Z,45.56
2022-08-28T21:32:36.260Z,45.55
2022-08-28T21:36:38.475Z,45.88
2022-08-28T21:40:40.651Z,46.14
2022-08-28T21:44:51.189Z,46.60
2022-08-28T21:48:54.718Z,46.57
2022-08-28T21:52:56.699Z,46.38
2022-08-28T21:57:04.292Z,46.89
2022-08-28T22:01:05.805Z,46.94
2022-08-28T22:05:07.555Z,47.12
2022-08-28T22:09:09.093Z,47.35
2022-08-28T22:13:11.552Z,47.42
2022-08-28T22:17:15.329Z,47.84
2022-08-28T22:21:38.374Z,47.34
2022-08-28T22:25:41.289Z,48.05
2022-08-28T22:29:43.480Z,48.02
2022-08-28T22:33:45.499Z,48.36
2022-08-28T22:37:47.453Z,48.45
2022-08-28T22:41:48.993Z,48.46
2022-08-28T22:45:50.497Z,48.88
2022-08-28T22:49:54.606Z,49.63
2022-08-28T22:53:56.501Z,50.09
2022-08-28T22:57:58.871Z,49.60
2022-08-28T23:02:00.797Z,49.81
2022-08-28T23:06:02.469Z,50.19
2022-08-28T23:10:05.439Z,50.94
2022-08-28T23:14:07.023Z,51.02
2022-08-28T23:18:08.560Z,51.17
2022-08-28T23:22:10.040Z,51.14
2022-08-28T23:26:12.824Z,51.31
2022-08-28T23:30:19.787Z,51.47
2022-08-28T23:34:21.793Z,51.61
2022-08-28T23:38:23.406Z,51.85
2022-08-28T23:42:25.017Z,51.77
2022-08-28T23:46:27.968Z,51.85
2022-08-28T23:50:29.456Z,52.76
2022-08-28T23:54:30.963Z,52.34
2022-08-28T23:58:32.656Z,52.46
